createdAt,value
2023-04-25T00:01:15.532Z,95.51
2023-04-25T00:03:44.340Z,95.68
2023-04-25T00:06:13.170Z,95.48
2023-04-25T00:08:41.683Z,95.23
2023-04-25T00:11:10.036Z,95.99
2023-04-25T00:13:42.565Z,95.28
2023-04-25T00:16:11.782Z,96.19
2023-04-25T00:18:40.696Z,96.03
2023-04-25T00:21:08.951Z,96.71
2023-04-25T00:23:37.556Z,96.39
2023-04-25T00:26:05.788Z,97.27
2023-04-25T00:28:34.054Z,97.65
2023-04-25T00:31:03.696Z,98.39
2023-04-25T00:33:32.047Z,98.43
2023-04-25T00:36:00.292Z,97.82
2023-04-25T00:38:28.738Z,98.04
2023-04-25T00:40:57.854Z,97.78
2023-04-25T00:43:28.418Z,97.47
2023-04-25T00:45:58.565Z,97.73
2023-04-25T00:48:28.415Z,97.49
2023-04-25T00:50:59.799Z,97.96
2023-04-25T00:53:30.778Z,97.05
2023-04-25T00:55:59.149Z,97.25
2023-04-25T00:58:27.423Z,96.82
2023-04-25T01:00:55.720Z,96.93
2023-04-25T01:03:24.894Z,96.69
2023-04-25T01:05:54.726Z,96.56
2023-04-25T01:08:26.162Z,96.11
2023-04-25T01:10:54.362Z,95.44
2023-04-25T01:13:22.831Z,95.89
2023-04-25T01:15:52.302Z,95.95
2023-04-25T01:18:21.984Z,95.96
2023-04-25T01:20:54.738Z,95.96
2023-04-25T01:23:25.332Z,95.52
2023-04-25T01:25:54.691Z,95.40
2023-04-25T01:28:23.326Z,94.79
2023-04-25T01:30:52.485Z,95.65
2023-04-25T01:33:23.308Z,95.18
2023-04-25T01:35:51.705Z,94.96
2023-04-25T01:38:22.013Z,95.51
2023-04-25T01:40:53.197Z,95.60
2023-04-25T01:43:22.539Z,95.13
2023-04-25T01:45:52.648Z,94.96
2023-04-25T01:48:21.347Z,95.20
2023-04-25T01:50:49.577Z,94.92
2023-04-25T01:53:17.946Z,95.13
2023-04-25T01:55:47.356Z,95.95
2023-04-25T01:58:19.290Z,95.45
2023-04-25T02:01:11.559Z,96.04
2023-04-25T02:04:22.231Z,95.94
2023-04-25T02:06:51.054Z,95.86
2023-04-25T02:09:21.165Z,96.02
2023-04-25T02:12:07.890Z,96.36
2023-04-25T02:14:56.205Z,96.42
2023-04-25T02:17:46.180Z,98.69
2023-04-25T02:20:16.835Z,97.78
2023-04-25T02:22:45.042Z,96.79
2023-04-25T02:25:14.157Z,97.92
2023-04-25T02:27:42.801Z,98.12
2023-04-25T02:30:13.285Z,97.22
2023-04-25T02:32:41.947Z,95.92
2023-04-25T02:35:11.725Z,95.77
2023-04-25T02:37:41.314Z,95.89
2023-04-25T02:40:11.059Z,95.82
2023-04-25T02:42:39.215Z,95.83
2023-04-25T02:45:08.853Z,95.12
2023-04-25T02:47:38.413Z,94.92
2023-04-25T02:50:08.283Z,95.26
2023-04-25T02:52:37.218Z,96.00
2023-04-25T02:55:15.655Z,95.56
2023-04-25T02:57:45.241Z,94.91
2023-04-25T03:00:17.835Z,95.81
2023-04-25T03:02:47.389Z,95.33
2023-04-25T03:05:15.898Z,94.96
2023-04-25T03:07:45.077Z,94.96
2023-04-25T03:10:13.552Z,95.49
2023-04-25T03:12:42.388Z,96.53
2023-04-25T03:15:12.405Z,95.60
2023-04-25T03:17:40.679Z,95.61
2023-04-25T03:20:13.668Z,95.99
2023-04-25T03:22:41.884Z,96.67
2023-04-25T03:25:10.569Z,96.51
2023-04-25T03:27:38.761Z,97.24
2023-04-25T03:30:09.642Z,97.10
2023-04-25T03:32:39.118Z,97.39
2023-04-25T03:35:11.461Z,97.62
2023-04-25T03:37:41.474Z,98.40
2023-04-25T03:40:11.008Z,97.89
2023-04-25T03:42:59.137Z,98.65
2023-04-25T03:45:27.980Z,98.53
2023-04-25T03:47:56.206Z,98.54
2023-04-25T03:50:26.272Z,98.87
2023-04-25T03:52:54.894Z,98.99
2023-04-25T03:55:23.491Z,100.00
2023-04-25T03:57:51.695Z,99.15
2023-04-25T04:00:21.610Z,98.30
2023-04-25T04:02:54.292Z,99.65
2023-04-25T04:05:34.407Z,99.65
2023-04-25T04:08:02.912Z,100.00
2023-04-25T04:10:31.629Z,98.78
2023-04-25T04:12:59.863Z,99.33
2023-04-25T04:15:28.168Z,99.37
2023-04-25T04:17:56.972Z,98.54
2023-04-25T04:20:25.265Z,98.62
2023-04-25T04:22:55.386Z,98.66
2023-04-25T04:25:25.547Z,98.89
2023-04-25T04:28:12.125Z,98.83
2023-04-25T04:31:06.644Z,98.87
2023-04-25T04:33:34.837Z,99.69
2023-04-25T04:36:08.563Z,100.00
2023-04-25T04:38:40.052Z,100.00
2023-04-25T04:41:12.417Z,99.73
2023-04-25T04:44:06.111Z,100.00
2023-04-25T04:46:45.539Z,100.00
2023-04-25T04:49:34.180Z,100.00
2023-04-25T04:52:11.218Z,100.00
2023-04-25T04:54:56.726Z,99.63
2023-04-25T04:57:45.269Z,99.60
2023-04-25T05:00:21.768Z,100.00
2023-04-25T05:03:14.160Z,99.91
2023-04-25T05:06:02.363Z,100.00
2023-04-25T05:08:46.741Z,100.00
2023-04-25T05:11:22.653Z,100.00
2023-04-25T05:14:00.696Z,100.00
2023-04-25T05:16:45.003Z,100.00
2023-04-25T05:19:26.589Z,100.00
2023-04-25T05:22:19.533Z,100.00
2023-04-25T05:24:57.418Z,100.00
2023-04-25T05:27:56.248Z,100.00
2023-04-25T05:30:42.026Z,100.00
2023-04-25T05:33:18.416Z,100.00
2023-04-25T05:35:47.498Z,100.00
2023-04-25T05:38:16.606Z,100.00
2023-04-25T05:41:08.309Z,100.00
2023-04-25T05:43:57.956Z,100.00
2023-04-25T05:46:45.510Z,100.00
2023-04-25T05:49:23.375Z,100.00
2023-04-25T05:52:04.051Z,100.00
2023-04-25T05:54:46.986Z,100.00
2023-04-25T05:57:24.346Z,100.00
2023-04-25T05:59:54.243Z,100.00
2023-04-25T06:02:23.652Z,100.00
2023-04-25T06:04:53.666Z,100.00
2023-04-25T06:07:24.171Z,100.00
2023-04-25T06:12:51.112Z,100.00
2023-04-25T06:15:28.041Z,100.00
2023-04-25T06:17:58.013Z,100.00
2023-04-25T06:20:26.472Z,100.00
2023-04-25T06:22:57.161Z,100.00
2023-04-25T06:25:38.165Z,100.00
2023-04-25T06:28:07.132Z,100.00
2023-04-25T06:30:37.210Z,100.00
2023-04-25T06:33:10.688Z,100.00
2023-04-25T06:35:40.953Z,100.00
2023-04-25T06:38:12.224Z,100.00
2023-04-25T06:40:42.176Z,100.00
2023-04-25T06:43:11.800Z,100.00
2023-04-25T06:45:56.442Z,100.00
2023-04-25T06:48:26.985Z,100.00
2023-04-25T06:50:55.367Z,100.00
2023-04-25T06:53:23.595Z,100.00
2023-04-25T06:55:57.767Z,100.00
2023-04-25T06:58:29.393Z,100.00
2023-04-25T07:01:15.904Z,100.00
2023-04-25T07:03:44.414Z,100.00
2023-04-25T07:06:18.329Z,100.00
2023-04-25T07:08:47.169Z,100.00
2023-04-25T07:11:15.407Z,100.00
2023-04-25T07:13:43.663Z,100.00
2023-04-25T07:16:12.029Z,100.00
2023-04-25T07:18:41.615Z,100.00
2023-04-25T07:21:11.119Z,100.00
2023-04-25T07:23:41.688Z,100.00
2023-04-25T07:26:13.776Z,100.00
2023-04-25T07:28:58.979Z,100.00
2023-04-25T07:31:27.312Z,100.00
2023-04-25T07:33:56.922Z,100.00
2023-04-25T07:36:25.246Z,100.00
2023-04-25T07:38:53.647Z,100.00
2023-04-25T07:41:21.825Z,100.00
2023-04-25T07:43:50.856Z,100.00
2023-04-25T07:46:19.312Z,100.00
2023-04-25T07:48:47.614Z,100.00
2023-04-25T07:51:17.321Z,100.00
2023-04-25T07:53:45.629Z,100.00
2023-04-25T07:56:20.005Z,99.38
2023-04-25T07:58:50.458Z,96.89
2023-04-25T08:01:22.625Z,96.81
2023-04-25T08:04:10.883Z,96.77
2023-04-25T08:06:55.608Z,91.78
2023-04-25T08:09:30.299Z,91.11
2023-04-25T08:12:01.967Z,92.20
2023-04-25T08:14:37.057Z,92.96
2023-04-25T08:17:06.684Z,89.17
2023-04-25T08:19:40.353Z,89.43
2023-04-25T08:22:13.744Z,92.27
2023-04-25T08:24:56.524Z,92.69
2023-04-25T08:27:25.724Z,92.01
2023-04-25T08:29:54.133Z,90.80
2023-04-25T08:32:23.231Z,92.42
2023-04-25T08:35:12.281Z,92.79
2023-04-25T08:37:42.393Z,90.76
2023-04-25T08:40:17.166Z,88.42
2023-04-25T08:42:54.389Z,89.62
2023-04-25T08:45:23.716Z,90.46
2023-04-25T08:47:54.951Z,90.13
2023-04-25T08:50:27.228Z,90.45
2023-04-25T08:53:02.681Z,89.36
2023-04-25T08:55:31.764Z,88.46
2023-04-25T08:58:02.788Z,88.25
2023-04-25T09:00:32.580Z,89.13
2023-04-25T09:03:01.725Z,88.64
2023-04-25T09:05:34.935Z,88.34
2023-04-25T09:08:04.657Z,86.91
2023-04-25T09:13:09.793Z,87.94
2023-04-25T09:15:59.839Z,86.75
2023-04-25T09:18:50.445Z,81.28
2023-04-25T09:21:19.374Z,78.56
2023-04-25T09:23:52.990Z,79.58
2023-04-25T09:26:23.414Z,80.34
2023-04-25T09:29:08.162Z,82.78
2023-04-25T09:31:39.148Z,78.65
2023-04-25T09:34:12.967Z,81.10
2023-04-25T09:36:47.506Z,77.18
2023-04-25T09:39:47.503Z,80.54
2023-04-25T09:42:18.311Z,80.49
2023-04-25T09:44:47.509Z,78.82
2023-04-25T09:47:19.007Z,79.02
2023-04-25T09:49:47.577Z,80.61
2023-04-25T09:52:18.731Z,79.80
2023-04-25T09:55:00.552Z,82.55
2023-04-25T09:57:34.523Z,85.46
2023-04-25T10:00:05.950Z,84.43
2023-04-25T10:02:45.345Z,83.24
2023-04-25T10:05:22.494Z,83.76
2023-04-25T10:07:56.081Z,83.33
2023-04-25T10:10:31.511Z,83.52
2023-04-25T10:13:00.765Z,81.03
2023-04-25T10:15:29.799Z,80.13
2023-04-25T10:17:59.441Z,80.42
2023-04-25T10:20:27.755Z,80.76
2023-04-25T10:22:58.354Z,77.54
2023-04-25T10:25:28.165Z,73.97
2023-04-25T10:27:56.398Z,71.44
2023-04-25T10:30:24.857Z,70.79
2023-04-25T10:32:53.081Z,72.26
2023-04-25T10:35:28.934Z,70.77
2023-04-25T10:38:02.403Z,69.25
2023-04-25T10:40:32.763Z,68.95
2023-04-25T10:43:43.720Z,69.34
2023-04-25T10:46:24.375Z,68.61
2023-04-25T10:48:54.720Z,68.05
2023-04-25T10:51:25.142Z,69.56
2023-04-25T10:54:02.060Z,68.88
2023-04-25T10:56:33.669Z,68.54
2023-04-25T10:59:09.223Z,68.29
2023-04-25T11:01:45.224Z,67.88
2023-04-25T11:04:24.387Z,68.48
2023-04-25T11:07:10.317Z,67.05
2023-04-25T11:09:41.841Z,68.97
2023-04-25T11:12:12.878Z,68.40
2023-04-25T11:14:41.764Z,67.80
2023-04-25T11:17:11.569Z,67.94
2023-04-25T11:19:39.981Z,65.36
2023-04-25T11:22:08.854Z,65.29
2023-04-25T11:24:38.437Z,63.96
2023-04-25T11:27:07.766Z,63.16
2023-04-25T11:29:37.874Z,66.09
2023-04-25T11:32:06.910Z,64.82
2023-04-25T11:34:36.315Z,65.50
2023-04-25T11:37:06.923Z,65.09
2023-04-25T11:39:35.825Z,65.57
2023-04-25T11:42:08.297Z,64.42
2023-04-25T11:44:42.027Z,64.82
2023-04-25T11:47:10.730Z,64.18
2023-04-25T11:49:39.204Z,63.57
2023-04-25T11:52:09.868Z,62.08
2023-04-25T11:54:39.003Z,62.80
2023-04-25T11:57:07.503Z,63.18
2023-04-25T11:59:36.040Z,63.42
2023-04-25T12:02:08.025Z,63.31
2023-04-25T12:04:37.100Z,62.00
2023-04-25T12:07:06.310Z,61.85
2023-04-25T12:10:01.291Z,61.82
2023-04-25T12:12:34.589Z,63.15
2023-04-25T12:15:13.072Z,62.05
2023-04-25T12:17:43.859Z,62.47
2023-04-25T12:20:15.184Z,62.10
2023-04-25T12:22:46.575Z,63.76
2023-04-25T12:25:15.084Z,63.71
2023-04-25T12:27:44.966Z,65.36
2023-04-25T12:30:13.605Z,63.51
2023-04-25T12:32:43.232Z,62.47
2023-04-25T12:35:11.719Z,62.89
2023-04-25T12:37:39.972Z,64.20
2023-04-25T12:40:09.873Z,64.64
2023-04-25T12:42:38.134Z,64.39
2023-04-25T12:45:07.547Z,66.02
2023-04-25T12:47:36.311Z,65.52
2023-04-25T12:50:07.134Z,64.36
2023-04-25T12:52:35.653Z,63.46
2023-04-25T12:55:04.056Z,61.06
2023-04-25T12:57:32.250Z,63.41
2023-04-25T13:00:00.518Z,58.79
2023-04-25T13:02:28.875Z,60.21
2023-04-25T13:04:57.173Z,59.36
2023-04-25T13:07:26.893Z,60.25
2023-04-25T13:09:55.131Z,61.76
2023-04-25T13:12:23.330Z,62.31
2023-04-25T13:14:51.534Z,62.69
2023-04-25T13:17:19.775Z,63.21
2023-04-25T13:19:48.032Z,63.64
2023-04-25T13:22:17.906Z,64.43
2023-04-25T13:24:47.619Z,64.99
2023-04-25T13:27:16.190Z,63.77
2023-04-25T13:29:44.444Z,66.94
2023-04-25T13:32:12.799Z,67.99
2023-04-25T13:34:41.025Z,69.91
2023-04-25T13:37:09.242Z,69.04
2023-04-25T13:39:37.453Z,70.32
2023-04-25T13:42:09.077Z,69.75
2023-04-25T13:44:37.233Z,68.42
2023-04-25T13:47:06.192Z,69.38
2023-04-25T13:49:34.409Z,77.14
2023-04-25T13:52:02.622Z,82.46
2023-04-25T13:54:30.781Z,85.95
2023-04-25T13:57:00.169Z,86.61
2023-04-25T13:59:29.878Z,88.29
2023-04-25T14:01:58.113Z,89.67
2023-04-25T14:04:28.633Z,88.83
2023-04-25T14:06:57.358Z,90.45
2023-04-25T14:09:26.650Z,90.18
2023-04-25T14:11:55.409Z,91.36
2023-04-25T14:14:24.426Z,92.04
2023-04-25T14:16:55.891Z,92.75
2023-04-25T14:19:24.242Z,93.40
2023-04-25T14:21:52.703Z,93.13
2023-04-25T14:24:21.542Z,94.31
2023-04-25T14:26:49.812Z,93.61
2023-04-25T14:29:17.983Z,94.73
2023-04-25T14:31:46.330Z,94.06
2023-04-25T14:34:16.055Z,95.57
2023-04-25T14:36:44.295Z,95.87
2023-04-25T14:39:13.440Z,96.50
2023-04-25T14:41:41.624Z,98.47
2023-04-25T14:44:09.784Z,98.36
2023-04-25T14:46:38.540Z,94.90
2023-04-25T14:49:08.281Z,94.84
2023-04-25T14:51:38.242Z,94.59
2023-04-25T14:54:07.242Z,93.23
2023-04-25T14:56:35.763Z,93.62
2023-04-25T14:59:03.997Z,95.76
2023-04-25T15:01:32.726Z,94.27
2023-04-25T15:04:01.430Z,94.97
2023-04-25T15:06:31.397Z,94.17
2023-04-25T15:09:00.976Z,95.90
2023-04-25T15:11:29.257Z,94.34
2023-04-25T15:13:57.454Z,93.96
2023-04-25T15:16:25.884Z,93.60
2023-04-25T15:18:54.092Z,92.95
2023-04-25T15:21:22.566Z,92.66
2023-04-25T15:23:51.229Z,92.08
2023-04-25T15:26:20.990Z,88.91
2023-04-25T15:28:49.483Z,87.52
2023-04-25T15:31:18.361Z,86.83
2023-04-25T15:33:46.657Z,84.14
2023-04-25T15:36:17.310Z,81.14
2023-04-25T15:38:45.526Z,83.72
2023-04-25T15:41:14.584Z,83.85
2023-04-25T15:43:44.318Z,84.45
2023-04-25T15:46:12.610Z,84.64
2023-04-25T15:48:40.850Z,85.05
2023-04-25T15:51:09.053Z,85.37
2023-04-25T15:53:37.379Z,85.41
2023-04-25T15:56:06.258Z,86.46
2023-04-25T15:58:36.011Z,85.63
2023-04-25T16:01:05.959Z,84.70
2023-04-25T16:03:36.322Z,85.62
2023-04-25T16:06:06.076Z,84.67
2023-04-25T16:08:35.878Z,84.69
2023-04-25T16:11:05.341Z,83.56
2023-04-25T16:13:35.246Z,84.13
2023-04-25T16:16:05.416Z,84.32
2023-04-25T16:18:33.644Z,84.88
2023-04-25T16:21:01.849Z,84.68
2023-04-25T16:23:30.193Z,84.77
2023-04-25T16:25:58.550Z,84.95
2023-04-25T16:28:27.496Z,85.37
2023-04-25T16:30:55.684Z,84.29
2023-04-25T16:33:25.489Z,83.79
2023-04-25T16:35:57.277Z,84.37
2023-04-25T16:38:25.475Z,83.78
2023-04-25T16:40:54.468Z,85.36
2023-04-25T16:43:22.912Z,85.27
2023-04-25T16:45:51.113Z,86.13
2023-04-25T16:48:20.851Z,90.43
2023-04-25T16:50:50.698Z,90.60
2023-04-25T16:53:18.986Z,90.89
2023-04-25T16:55:47.372Z,91.46
2023-04-25T16:58:15.542Z,91.29
2023-04-25T17:00:43.909Z,90.43
2023-04-25T17:03:12.826Z,91.34
2023-04-25T17:05:41.099Z,90.98
2023-04-25T17:08:10.689Z,91.15
2023-04-25T17:10:38.962Z,91.52
2023-04-25T17:13:07.227Z,91.83
2023-04-25T17:15:35.952Z,91.97
2023-04-25T17:18:04.341Z,92.00
2023-04-25T17:20:33.101Z,91.45
2023-04-25T17:23:01.364Z,91.03
2023-04-25T17:25:31.516Z,90.92
2023-04-25T17:27:59.752Z,90.25
2023-04-25T17:30:28.111Z,90.77
2023-04-25T17:32:57.525Z,91.16
2023-04-25T17:35:26.111Z,91.29
2023-04-25T17:37:54.308Z,91.47
2023-04-25T17:40:22.568Z,92.01
2023-04-25T17:42:52.176Z,91.83
2023-04-25T17:45:20.451Z,92.04
2023-04-25T17:47:48.717Z,92.21
2023-04-25T17:50:17.848Z,90.74
2023-04-25T17:52:48.292Z,90.86
2023-04-25T17:55:16.688Z,90.80
2023-04-25T17:57:45.538Z,90.88
2023-04-25T18:00:18.564Z,90.07
2023-04-25T18:02:48.543Z,89.75
2023-04-25T18:05:17.774Z,89.90
2023-04-25T18:07:46.010Z,89.57
2023-04-25T18:10:20.496Z,90.68
2023-04-25T18:12:50.409Z,90.14
2023-04-25T18:15:21.958Z,90.99
2023-04-25T18:17:50.344Z,90.81
2023-04-25T18:20:19.491Z,90.87
2023-04-25T18:22:48.133Z,91.36
2023-04-25T18:25:16.403Z,91.18
2023-04-25T18:27:45.829Z,91.35
2023-04-25T18:30:15.055Z,91.32
2023-04-25T18:32:44.928Z,92.58
2023-04-25T18:35:13.699Z,92.88
2023-04-25T18:37:42.549Z,92.19
2023-04-25T18:40:14.118Z,92.66
2023-04-25T18:42:43.100Z,91.99
2023-04-25T18:45:12.786Z,92.75
2023-04-25T18:47:41.109Z,92.37
2023-04-25T18:50:12.856Z,92.02
2023-04-25T18:52:41.828Z,92.99
2023-04-25T18:55:11.266Z,92.76
2023-04-25T18:57:39.740Z,92.82
2023-04-25T19:00:11.248Z,92.71
2023-04-25T19:02:39.784Z,93.08
2023-04-25T19:05:11.251Z,93.32
2023-04-25T19:07:40.525Z,93.63
2023-04-25T19:10:10.057Z,92.98
2023-04-25T19:12:38.547Z,93.45
2023-04-25T19:15:09.820Z,93.42
2023-04-25T19:17:38.102Z,92.95
2023-04-25T19:20:08.923Z,92.62
2023-04-25T19:22:41.682Z,91.94
2023-04-25T19:25:11.402Z,92.22
2023-04-25T19:27:40.246Z,90.41
2023-04-25T19:30:10.765Z,89.65
2023-04-25T19:32:39.489Z,89.91
2023-04-25T19:35:11.839Z,90.33
2023-04-25T19:37:46.427Z,87.04
2023-04-25T19:40:16.275Z,80.29
2023-04-25T19:42:45.108Z,79.83
2023-04-25T19:45:13.703Z,80.05
2023-04-25T19:47:42.663Z,80.77
2023-04-25T19:50:12.000Z,82.47
2023-04-25T19:52:41.722Z,83.15
2023-04-25T19:55:11.521Z,82.39
2023-04-25T19:57:39.788Z,82.10
2023-04-25T20:00:12.816Z,82.56
2023-04-25T20:02:41.602Z,82.37
2023-04-25T20:05:10.687Z,81.37
2023-04-25T20:07:39.425Z,81.23
2023-04-25T20:10:13.645Z,81.33
2023-04-25T20:12:42.266Z,81.17
2023-04-25T20:15:12.212Z,79.97
2023-04-25T20:17:41.639Z,79.60
2023-04-25T20:20:11.505Z,79.24
2023-04-25T20:22:40.693Z,79.10
2023-04-25T20:25:16.786Z,79.21
2023-04-25T20:27:45.357Z,79.48
2023-04-25T20:30:15.494Z,79.48
2023-04-25T20:32:43.842Z,79.34
2023-04-25T20:35:13.692Z,79.91
2023-04-25T20:37:42.279Z,80.24
2023-04-25T20:40:11.829Z,80.71
2023-04-25T20:42:41.682Z,80.86
2023-04-25T20:45:13.635Z,82.22
2023-04-25T20:47:42.855Z,82.65
2023-04-25T20:50:12.196Z,82.63
2023-04-25T20:52:40.475Z,83.85
2023-04-25T20:55:10.902Z,84.04
2023-04-25T20:57:39.307Z,84.58
2023-04-25T21:00:18.654Z,85.00
2023-04-25T21:02:47.802Z,86.67
2023-04-25T21:05:16.308Z,87.23
2023-04-25T21:07:45.569Z,88.28
2023-04-25T21:10:14.373Z,88.83
2023-04-25T21:12:44.088Z,88.64
2023-04-25T21:15:14.557Z,89.23
2023-04-25T21:17:43.273Z,90.71
2023-04-25T21:20:12.467Z,90.74
2023-04-25T21:22:47.786Z,90.87
2023-04-25T21:25:20.274Z,91.07
2023-04-25T21:27:49.799Z,90.57
2023-04-25T21:30:23.353Z,90.55
2023-04-25T21:32:53.198Z,90.55
2023-04-25T21:35:23.047Z,90.84
2023-04-25T21:37:51.607Z,90.47
2023-04-25T21:40:20.060Z,91.09
2023-04-25T21:42:51.385Z,91.06
2023-04-25T21:45:22.045Z,92.15
2023-04-25T21:47:51.087Z,92.59
2023-04-25T21:50:19.619Z,91.67
2023-04-25T21:52:48.216Z,91.42
2023-04-25T21:55:16.867Z,91.96
2023-04-25T21:57:45.089Z,91.64
2023-04-25T22:00:24.399Z,91.86
2023-04-25T22:02:55.603Z,91.84
2023-04-25T22:05:27.386Z,92.62
2023-04-25T22:10:49.503Z,91.90
2023-04-25T22:13:17.701Z,92.37
2023-04-25T22:15:45.934Z,92.93
2023-04-25T22:18:16.310Z,92.80
2023-04-25T22:20:45.054Z,91.88
2023-04-25T22:23:13.758Z,91.66
2023-04-25T22:25:42.397Z,92.67
2023-04-25T22:28:12.671Z,91.37
2023-04-25T22:30:40.956Z,93.15
2023-04-25T22:33:09.274Z,92.67
2023-04-25T22:35:38.848Z,93.20
2023-04-25T22:38:07.112Z,94.37
2023-04-25T22:40:35.383Z,93.84
2023-04-25T22:43:03.757Z,94.15
2023-04-25T22:45:32.566Z,93.73
2023-04-25T22:48:00.970Z,94.28
2023-04-25T22:50:29.160Z,94.85
2023-04-25T22:52:58.890Z,93.22
2023-04-25T22:55:27.857Z,93.77
2023-04-25T22:57:56.873Z,93.64
2023-04-25T23:00:26.270Z,93.89
2023-04-25T23:02:54.902Z,93.41
2023-04-25T23:05:24.414Z,94.61
2023-04-25T23:07:52.805Z,94.44
2023-04-25T23:10:22.470Z,95.51
2023-04-25T23:12:50.685Z,94.08
2023-04-25T23:15:20.622Z,94.90
2023-04-25T23:17:48.952Z,94.04
2023-04-25T23:20:17.668Z,94.22
2023-04-25T23:22:45.930Z,94.07
2023-04-25T23:25:14.944Z,94.29
2023-04-25T23:27:45.038Z,94.22
2023-04-25T23:30:14.430Z,95.26
2023-04-25T23:32:43.125Z,94.09
2023-04-25T23:35:11.920Z,95.40
2023-04-25T23:37:41.371Z,95.55
2023-04-25T23:40:12.115Z,94.38
2023-04-25T23:42:42.309Z,95.31
2023-04-25T23:45:14.278Z,95.07
2023-04-25T23:47:43.143Z,93.62
2023-04-25T23:50:12.371Z,92.49
2023-04-25T23:52:41.225Z,93.45
2023-04-25T23:55:10.714Z,93.54
2023-04-25T23:57:38.912Z,91.60
